createdAt,value
2023-01-13T00:00:04.925Z,99.87
2023-01-13T00:02:39.870Z,100.00
2023-01-13T00:05:12.875Z,100.00
2023-01-13T05:03:17.585Z,100.00
2023-01-13T05:05:53.269Z,100.00
2023-01-13T05:08:26.579Z,100.00
2023-01-13T05:11:05.319Z,100.00
2023-01-13T05:14:04.862Z,100.00
2023-01-13T05:16:54.862Z,100.00
2023-01-13T05:19:29.213Z,100.00
2023-01-13T05:22:19.617Z,100.00
2023-01-13T05:25:10.534Z,100.00
2023-01-13T05:27:42.867Z,100.00
2023-01-13T05:30:15.722Z,100.00
2023-01-13T05:32:48.686Z,100.00
2023-01-13T05:35:21.200Z,100.00
2023-01-13T05:37:53.542Z,100.00
2023-01-13T05:40:44.464Z,100.00
2023-01-13T05:43:22.044Z,100.00
2023-01-13T05:46:00.732Z,100.00
2023-01-13T05:48:39.704Z,100.00
2023-01-13T05:51:13.318Z,100.00
2023-01-13T05:53:45.703Z,100.00
2023-01-13T05:56:18.263Z,100.00
2023-01-13T05:58:50.900Z,100.00
2023-01-13T06:01:23.560Z,100.00
2023-01-13T06:03:56.089Z,100.00
2023-01-13T06:06:28.543Z,100.00
2023-01-13T06:09:01.614Z,100.00
2023-01-13T06:11:34.306Z,100.00
2023-01-13T06:14:07.097Z,100.00
2023-01-13T06:16:39.726Z,100.00
2023-01-13T06:19:13.455Z,100.00
2023-01-13T06:21:45.980Z,100.00
2023-01-13T06:24:18.313Z,100.00
2023-01-13T06:26:50.885Z,100.00
2023-01-13T06:29:23.725Z,100.00
2023-01-13T06:31:56.441Z,100.00
2023-01-13T06:34:29.925Z,100.00
2023-01-13T06:37:02.531Z,100.00
2023-01-13T06:39:36.222Z,100.00
2023-01-13T06:42:26.699Z,100.00
2023-01-13T06:44:59.037Z,100.00
2023-01-13T06:47:31.467Z,100.00
2023-01-13T06:50:04.677Z,100.00
2023-01-13T06:52:37.470Z,100.00
2023-01-13T06:55:10.372Z,100.00
2023-01-13T06:57:54.625Z,100.00
2023-01-13T07:00:28.327Z,100.00
2023-01-13T07:03:17.438Z,100.00
2023-01-13T07:05:55.026Z,100.00
2023-01-13T07:08:27.386Z,100.00
2023-01-13T07:11:04.743Z,100.00
2023-01-13T07:13:55.410Z,100.00
2023-01-13T07:16:28.343Z,100.00
2023-01-13T07:19:00.858Z,100.00
2023-01-13T07:21:33.986Z,100.00
2023-01-13T07:24:06.871Z,100.00
2023-01-13T07:26:39.592Z,100.00
2023-01-13T07:29:12.573Z,100.00
2023-01-13T07:31:45.172Z,100.00
2023-01-13T07:34:17.707Z,100.00
2023-01-13T07:36:50.378Z,100.00
2023-01-13T07:39:23.000Z,100.00
2023-01-13T07:41:59.773Z,100.00
2023-01-13T07:44:32.341Z,100.00
2023-01-13T07:47:06.097Z,100.00
2023-01-13T07:49:39.202Z,100.00
2023-01-13T07:52:11.724Z,100.00
2023-01-13T07:54:44.069Z,100.00
2023-01-13T07:57:17.034Z,100.00
2023-01-13T07:59:49.500Z,99.79
2023-01-13T08:02:22.064Z,99.67
2023-01-13T08:04:55.364Z,99.66
2023-01-13T08:07:28.155Z,99.54
2023-01-13T08:10:02.425Z,99.04
2023-01-13T08:12:55.692Z,98.71
2023-01-13T08:15:27.404Z,98.96
2023-01-13T08:18:00.642Z,98.94
2023-01-13T08:20:33.069Z,98.75
2023-01-13T08:23:07.235Z,98.80
2023-01-13T08:25:39.076Z,98.38
2023-01-13T08:28:11.312Z,98.40
2023-01-13T08:30:44.186Z,98.65
2023-01-13T08:33:16.841Z,98.56
2023-01-13T08:35:50.880Z,98.42
2023-01-13T08:38:24.680Z,98.50
2023-01-13T08:40:57.826Z,98.65
2023-01-13T08:43:30.162Z,98.62
2023-01-13T08:46:05.327Z,98.69
2023-01-13T08:48:38.108Z,98.83
2023-01-13T08:51:10.906Z,98.75
2023-01-13T08:53:44.233Z,98.80
2023-01-13T08:56:17.213Z,99.10
2023-01-13T08:58:49.738Z,98.95
2023-01-13T09:01:24.136Z,98.65
2023-01-13T09:03:56.794Z,98.57
2023-01-13T09:06:29.445Z,98.78
2023-01-13T09:09:02.869Z,98.68
2023-01-13T09:11:55.939Z,98.91
2023-01-13T09:14:50.017Z,98.87
2023-01-13T09:17:23.364Z,98.88
2023-01-13T09:19:55.847Z,98.91
2023-01-13T09:22:28.928Z,99.06
2023-01-13T09:25:01.483Z,98.80
2023-01-13T09:27:35.011Z,98.89
2023-01-13T09:30:09.122Z,99.13
2023-01-13T09:32:41.526Z,99.16
2023-01-13T09:35:14.152Z,98.84
2023-01-13T09:37:46.784Z,98.50
2023-01-13T09:40:22.896Z,98.57
2023-01-13T09:43:24.117Z,98.40
2023-01-13T09:46:01.055Z,98.54
2023-01-13T09:48:40.408Z,98.97
2023-01-13T09:51:35.815Z,99.27
2023-01-13T09:54:32.268Z,99.56
2023-01-13T09:57:14.540Z,99.43
2023-01-13T09:59:47.135Z,99.56
2023-01-13T10:03:08.648Z,99.67
2023-01-13T10:06:04.847Z,99.66
2023-01-13T13:33:51.878Z,100.00
2023-01-13T13:36:47.027Z,100.00
2023-01-13T13:39:45.704Z,100.00
2023-01-13T13:42:38.413Z,100.00
2023-01-13T13:45:40.069Z,100.00
2023-01-13T13:48:31.816Z,100.00
2023-01-13T13:51:07.208Z,100.00
2023-01-13T13:53:42.155Z,100.00
2023-01-13T13:56:21.719Z,100.00
2023-01-13T13:58:54.153Z,100.00
2023-01-13T14:01:31.354Z,100.00
2023-01-13T14:04:22.939Z,100.00
2023-01-13T14:07:00.667Z,100.00
2023-01-13T14:09:46.322Z,100.00
2023-01-13T14:12:22.094Z,100.00
2023-01-13T14:14:56.654Z,100.00
2023-01-13T14:17:31.003Z,100.00
2023-01-13T14:20:09.632Z,100.00
2023-01-13T14:22:44.089Z,100.00
2023-01-13T14:25:29.537Z,100.00
2023-01-13T14:28:08.883Z,100.00
2023-01-13T14:30:42.131Z,100.00
2023-01-13T14:33:23.227Z,100.00
2023-01-13T14:36:26.154Z,100.00
2023-01-13T14:39:14.352Z,100.00
2023-01-13T14:41:49.085Z,100.00
2023-01-13T14:44:34.295Z,100.00
2023-01-13T14:47:29.398Z,100.00
2023-01-13T14:50:27.700Z,100.00
2023-01-13T14:53:01.040Z,100.00
2023-01-13T14:55:40.546Z,100.00
2023-01-13T14:58:26.670Z,100.00
2023-01-13T15:01:29.064Z,100.00
2023-01-13T15:04:28.938Z,100.00
2023-01-13T15:07:01.549Z,100.00
2023-01-13T15:09:40.947Z,100.00
2023-01-13T15:12:23.598Z,100.00
2023-01-13T15:14:58.001Z,100.00
2023-01-13T15:17:50.333Z,99.99
2023-01-13T15:20:25.036Z,100.00
2023-01-13T15:22:59.647Z,100.00
2023-01-13T15:25:51.883Z,99.67
2023-01-13T15:28:27.186Z,99.71
2023-01-13T15:31:04.137Z,100.00
2023-01-13T15:33:37.105Z,99.96
2023-01-13T15:36:23.553Z,99.84
2023-01-13T15:38:56.672Z,99.22
2023-01-13T15:41:47.245Z,99.31
2023-01-13T15:44:38.287Z,99.65
2023-01-13T15:47:10.956Z,99.52
2023-01-13T15:49:45.184Z,99.39
2023-01-13T15:52:21.713Z,99.64
2023-01-13T15:54:54.965Z,99.09
2023-01-13T15:57:33.114Z,99.25
2023-01-13T16:00:13.632Z,99.46
2023-01-13T16:02:46.659Z,99.29
2023-01-13T16:05:19.470Z,100.00
2023-01-13T16:07:52.188Z,99.84
2023-01-13T16:10:27.163Z,99.82
2023-01-13T16:13:00.145Z,99.96
2023-01-13T16:15:33.520Z,100.00
2023-01-13T16:18:07.003Z,99.89
2023-01-13T16:20:40.387Z,100.00
2023-01-13T16:23:13.839Z,100.00
2023-01-13T16:25:47.885Z,100.00
2023-01-13T16:28:28.581Z,100.00
2023-01-13T16:31:01.323Z,100.00
2023-01-13T16:33:33.916Z,100.00
2023-01-13T16:36:12.723Z,100.00
2023-01-13T16:38:45.318Z,100.00
2023-01-13T16:41:19.523Z,100.00
2023-01-13T16:43:52.122Z,100.00
2023-01-13T16:46:30.167Z,100.00
2023-01-13T16:49:07.234Z,100.00
2023-01-13T16:51:40.122Z,100.00
2023-01-13T16:54:12.742Z,100.00
2023-01-13T16:56:46.178Z,100.00
2023-01-13T16:59:18.569Z,100.00
2023-01-13T17:01:52.166Z,100.00
2023-01-13T17:04:24.676Z,100.00
2023-01-13T17:07:02.045Z,100.00
2023-01-13T17:09:34.713Z,100.00
2023-01-13T17:12:07.988Z,100.00
2023-01-13T17:14:42.620Z,100.00
2023-01-13T17:17:28.069Z,100.00
2023-01-13T17:20:01.121Z,100.00
2023-01-13T17:22:34.344Z,100.00
2023-01-13T17:25:07.906Z,100.00
2023-01-13T17:27:41.779Z,100.00
2023-01-13T17:30:15.475Z,100.00
2023-01-13T17:32:48.162Z,100.00
2023-01-13T17:35:22.310Z,100.00
2023-01-13T17:37:56.117Z,100.00
2023-01-13T17:40:28.837Z,100.00
2023-01-13T17:43:01.176Z,100.00
2023-01-13T17:45:33.932Z,100.00
2023-01-13T17:48:08.377Z,100.00
2023-01-13T17:50:41.342Z,100.00
2023-01-13T17:53:14.351Z,100.00
2023-01-13T17:55:55.054Z,100.00
2023-01-13T17:58:27.985Z,100.00
2023-01-13T18:01:00.855Z,100.00
2023-01-13T18:03:33.685Z,100.00
2023-01-13T18:06:12.890Z,100.00
2023-01-13T18:08:45.546Z,100.00
2023-01-13T18:11:19.628Z,100.00
2023-01-13T18:13:54.305Z,100.00
2023-01-13T18:16:27.395Z,100.00
2023-01-13T18:19:20.144Z,100.00
2023-01-13T18:22:11.807Z,100.00
2023-01-13T18:25:02.521Z,100.00
2023-01-13T18:27:39.148Z,100.00
2023-01-13T18:30:12.885Z,100.00
2023-01-13T18:32:46.243Z,100.00
2023-01-13T18:35:19.285Z,100.00
2023-01-13T18:37:52.519Z,100.00
2023-01-13T18:40:25.798Z,100.00
2023-01-13T18:42:59.465Z,100.00
2023-01-13T18:45:33.105Z,100.00
2023-01-13T18:48:06.204Z,100.00
2023-01-13T18:50:39.245Z,100.00
2023-01-13T18:53:11.808Z,100.00
2023-01-13T18:55:44.802Z,100.00
2023-01-13T18:58:17.431Z,100.00
2023-01-13T19:00:49.882Z,100.00
2023-01-13T19:03:30.048Z,100.00
2023-01-13T19:06:08.383Z,100.00
2023-01-13T19:08:40.948Z,100.00
2023-01-13T19:11:13.870Z,100.00
2023-01-13T19:13:46.395Z,100.00
2023-01-13T19:16:22.444Z,100.00
2023-01-13T19:18:55.300Z,100.00
2023-01-13T19:21:27.691Z,100.00
2023-01-13T19:24:00.421Z,100.00
2023-01-13T19:26:33.103Z,100.00
2023-01-13T19:29:05.929Z,100.00
2023-01-13T19:31:38.459Z,100.00
2023-01-13T19:34:11.914Z,100.00
2023-01-13T19:36:44.549Z,100.00
2023-01-13T19:39:17.140Z,100.00
2023-01-13T19:42:07.981Z,100.00
2023-01-13T19:44:58.693Z,100.00
2023-01-13T19:47:31.294Z,100.00
2023-01-13T19:50:05.517Z,100.00
2023-01-13T19:52:38.619Z,100.00
2023-01-13T19:55:12.556Z,100.00
2023-01-13T19:57:45.272Z,100.00
2023-01-13T20:00:20.380Z,100.00
2023-01-13T20:02:53.506Z,100.00
2023-01-13T20:05:26.425Z,100.00
2023-01-13T20:07:59.104Z,100.00
2023-01-13T20:10:31.668Z,100.00
2023-01-13T20:13:05.068Z,100.00
2023-01-13T20:15:40.667Z,100.00
2023-01-13T20:18:13.287Z,100.00
2023-01-13T20:20:45.953Z,100.00
2023-01-13T20:23:19.704Z,100.00
2023-01-13T20:25:52.282Z,100.00
2023-01-13T20:28:24.842Z,100.00
2023-01-13T20:30:57.281Z,100.00
2023-01-13T20:33:29.949Z,100.00
2023-01-13T20:36:02.314Z,100.00
2023-01-13T20:38:38.765Z,100.00
2023-01-13T20:41:29.668Z,100.00
2023-01-13T20:44:02.020Z,100.00
2023-01-13T20:46:34.814Z,100.00
2023-01-13T20:49:09.037Z,100.00
2023-01-13T20:51:41.494Z,100.00
2023-01-13T20:54:14.848Z,100.00
2023-01-13T20:56:47.182Z,100.00
2023-01-13T20:59:19.704Z,100.00
2023-01-13T21:01:52.536Z,100.00
2023-01-13T21:04:25.017Z,100.00
2023-01-13T21:06:57.697Z,100.00
2023-01-13T21:09:30.587Z,100.00
2023-01-13T21:12:20.856Z,100.00
2023-01-13T21:15:11.408Z,100.00
2023-01-13T21:18:02.869Z,100.00
2023-01-13T21:20:36.630Z,100.00
2023-01-13T21:23:10.988Z,100.00
2023-01-13T21:25:43.516Z,100.00
2023-01-13T21:28:17.103Z,100.00
2023-01-13T21:30:50.305Z,100.00
2023-01-13T21:33:23.108Z,100.00
2023-01-13T21:35:55.487Z,100.00
2023-01-13T21:38:30.287Z,100.00
2023-01-13T21:41:08.587Z,100.00
2023-01-13T21:43:59.320Z,100.00
2023-01-13T21:46:50.299Z,100.00
2023-01-13T21:49:22.971Z,100.00
2023-01-13T21:51:55.538Z,100.00
2023-01-13T21:54:28.813Z,100.00
2023-01-13T21:57:01.177Z,100.00
2023-01-13T21:59:33.914Z,100.00
2023-01-13T22:02:23.855Z,100.00
2023-01-13T22:04:42.735Z,100.00
2023-01-13T22:07:15.364Z,100.00
2023-01-13T22:09:48.467Z,100.00
2023-01-13T22:12:22.868Z,100.00
2023-01-13T22:14:56.278Z,100.00
2023-01-13T22:17:30.953Z,100.00
2023-01-13T22:20:04.172Z,100.00
2023-01-13T22:22:36.917Z,100.00
2023-01-13T22:25:11.850Z,100.00
2023-01-13T22:27:45.176Z,100.00
2023-01-13T22:30:21.766Z,100.00
2023-01-13T22:32:54.310Z,100.00
2023-01-13T22:35:26.899Z,100.00
2023-01-13T22:37:59.616Z,100.00
2023-01-13T22:40:32.259Z,100.00
2023-01-13T22:43:05.187Z,100.00
2023-01-13T22:45:39.189Z,100.00
2023-01-13T22:48:11.728Z,100.00
2023-01-13T22:50:45.719Z,100.00
2023-01-13T22:53:18.337Z,100.00
2023-01-13T22:55:58.186Z,100.00
2023-01-13T22:58:30.603Z,100.00
2023-01-13T23:01:15.992Z,100.00
2023-01-13T23:03:51.411Z,100.00
2023-01-13T23:06:25.116Z,100.00
2023-01-13T23:08:57.985Z,100.00
2023-01-13T23:11:31.495Z,100.00
2023-01-13T23:14:06.888Z,100.00
2023-01-13T23:16:41.056Z,100.00
2023-01-13T23:19:13.637Z,100.00
2023-01-13T23:21:46.218Z,100.00
2023-01-13T23:24:19.122Z,100.00
2023-01-13T23:26:51.834Z,100.00
2023-01-13T23:29:25.265Z,100.00
2023-01-13T23:31:57.507Z,100.00
2023-01-13T23:34:30.083Z,100.00
2023-01-13T23:37:02.576Z,100.00
2023-01-13T23:39:36.646Z,100.00
2023-01-13T23:42:09.013Z,100.00
2023-01-13T23:44:41.547Z,100.00
2023-01-13T23:47:14.339Z,100.00
2023-01-13T23:49:47.145Z,100.00
2023-01-13T23:52:19.534Z,100.00
2023-01-13T23:54:52.426Z,100.00
2023-01-13T23:57:24.882Z,100.00
2023-01-13T23:59:57.339Z,100.00
